Time,TemperatureF,DewpointF,PressureIn,WindDirection,WindDirectionDegrees,WindSpeedMPH,WindSpeedGustMPH,Humidity,HourlyPrecipIn,Conditions,Clouds,dailyrainin,SoftwareType,DateUTC
2013-12-24 00:01:00,12.4,12.4,29.88,North,353,4.0,6.3,100,0.00,,,0.00,VWS V13.01,2013-12-24 05:01:00,
2013-12-24 00:04:00,12.6,12.6,29.88,North,353,7.4,9.8,100,0.00,,,0.00,VWS V13.01,2013-12-24 05:04:00,
2013-12-24 00:06:00,12.7,12.7,29.88,North,357,5.4,12.5,100,0.00,,,0.00,VWS V13.01,2013-12-24 05:06:00,
2013-12-24 00:12:00,12.4,12.4,29.88,North,11,4.7,8.1,100,0.00,,,0.00,VWS V13.01,2013-12-24 05:12:00,
2013-12-24 00:15:00,11.8,11.8,29.88,North,353,0.0,0.0,100,0.00,,,0.00,VWS V13.01,2013-12-24 05:15:00,
2013-12-24 00:22:00,11.8,11.8,29.88,North,357,4.0,5.4,100,0.00,,,0.00,VWS V13.01,2013-12-24 05:22:00,
2013-12-24 00:26:00,11.8,11.8,29.88,NNW,333,5.4,8.1,100,0.00,,,0.00,VWS V13.01,2013-12-24 05:26:00,
2013-12-24 00:31:00,11.8,11.8,29.88,NNW,345,6.0,9.8,100,0.00,,,0.00,VWS V13.01,2013-12-24 05:31:00,
2013-12-24 00:37:00,11.7,11.7,29.88,NNW,339,3.4,8.1,100,0.00,,,0.00,VWS V13.01,2013-12-24 05:37:00,
2013-12-24 00:44:00,11.7,11.7,29.88,North,1,4.0,10.7,100,0.00,,,0.00,VWS V13.01,2013-12-24 05:44:00,
2013-12-24 00:49:00,11.8,11.8,29.88,North,7,8.1,10.7,100,0.00,,,0.00,VWS V13.01,2013-12-24 05:49:00,
2013-12-24 00:55:00,11.7,11.7,29.88,North,357,8.1,10.7,100,0.00,,,0.00,VWS V13.01,2013-12-24 05:55:00,
2013-12-24 01:02:00,11.7,11.7,29.88,NNW,340,4.0,12.5,100,0.00,,,0.00,VWS V13.01,2013-12-24 06:02:00,
2013-12-24 01:07:00,10.8,10.8,29.91,NNW,327,5.4,7.2,100,0.00,,,0.00,VWS V13.01,2013-12-24 06:07:00,
2013-12-24 01:14:00,9.7,9.7,29.91,NW,321,0.0,0.0,100,0.00,,,0.00,VWS V13.01,2013-12-24 06:14:00,
2013-12-24 01:19:00,9.1,9.1,29.91,NW,324,0.0,7.2,100,0.00,,,0.00,VWS V13.01,2013-12-24 06:19:00,
2013-12-24 01:26:00,9.0,9.0,29.91,NNW,328,5.4,7.2,100,0.00,,,0.00,VWS V13.01,2013-12-24 06:26:00,
2013-12-24 01:31:00,8.8,8.8,29.91,NNW,334,4.0,8.1,100,0.00,,,0.00,VWS V13.01,2013-12-24 06:31:00,
2013-12-24 01:37:00,8.4,8.4,29.91,NW,324,0.0,0.0,100,0.00,,,0.00,VWS V13.01,2013-12-24 06:37:00,
2013-12-24 01:43:00,8.1,8.1,29.91,NW,310,0.0,5.4,100,0.00,,,0.00,VWS V13.01,2013-12-24 06:43:00,
2013-12-24 01:50:00,7.7,7.7,29.91,NW,310,0.0,0.0,100,0.00,,,0.00,VWS V13.01,2013-12-24 06:50:00,
2013-12-24 01:56:00,7.2,7.2,29.91,NW,310,0.0,0.0,100,0.00,,,0.00,VWS V13.01,2013-12-24 06:56:00,
2013-12-24 02:01:00,7.2,7.2,29.91,NW,310,0.0,0.0,100,0.00,,,0.00,VWS V13.01,2013-12-24 07:01:00,
2013-12-24 02:08:00,7.7,7.7,29.91,NW,320,4.0,6.3,100,0.00,,,0.00,VWS V13.01,2013-12-24 07:08:00,
2013-12-24 02:13:00,8.1,8.1,29.91,NNW,342,5.4,7.2,100,0.00,,,0.00,VWS V13.01,2013-12-24 07:13:00,
2013-12-24 02:19:00,7.7,7.7,29.91,NNW,333,0.0,0.0,100,0.00,,,0.00,VWS V13.01,2013-12-24 07:19:00,
2013-12-24 02:26:00,7.5,7.5,29.94,NW,312,3.4,6.3,100,0.00,,,0.00,VWS V13.01,2013-12-24 07:26:00,
2013-12-24 02:32:00,7.3,7.3,29.94,NNW,332,4.0,7.2,100,0.00,,,0.00,VWS V13.01,2013-12-24 07:32:00,
2013-12-24 02:38:00,7.5,7.5,29.94,NNW,334,4.7,8.1,100,0.00,,,0.00,VWS V13.01,2013-12-24 07:38:00,
2013-12-24 02:43:00,7.7,7.7,29.94,NNW,343,4.7,7.2,100,0.00,,,0.00,VWS V13.01,2013-12-24 07:43:00,
2013-12-24 02:50:00,8.1,8.1,29.94,North,349,8.1,11.6,100,0.00,,,0.00,VWS V13.01,2013-12-24 07:50:00,
2013-12-24 02:56:00,8.1,8.1,29.94,NNW,343,5.4,8.1,100,0.00,,,0.00,VWS V13.01,2013-12-24 07:56:00,
2013-12-24 03:01:00,8.4,8.4,29.94,North,7,4.7,10.7,100,0.00,,,0.00,VWS V13.01,2013-12-24 08:01:00,
2013-12-24 03:08:00,8.2,8.2,29.94,North,2,6.7,10.7,100,0.00,,,0.00,VWS V13.01,2013-12-24 08:08:00,
2013-12-24 03:14:00,7.9,7.9,29.94,NNW,335,4.7,9.8,100,0.00,,,0.00,VWS V13.01,2013-12-24 08:14:00,
2013-12-24 03:20:00,7.3,7.3,29.94,NNW,339,4.0,10.7,100,0.00,,,0.00,VWS V13.01,2013-12-24 08:20:00,
2013-12-24 03:26:00,7.7,7.7,29.94,North,353,10.7,14.3,100,0.00,,,0.00,VWS V13.01,2013-12-24 08:26:00,
2013-12-24 03:32:00,7.5,7.5,29.94,NNW,341,8.1,11.6,100,0.00,,,0.00,VWS V13.01,2013-12-24 08:32:00,
2013-12-24 03:38:00,7.5,7.5,29.94,North,353,4.7,12.5,100,0.00,,,0.00,VWS V13.01,2013-12-24 08:38:00,
2013-12-24 03:44:00,7.3,7.3,29.94,NNW,334,7.4,12.5,100,0.00,,,0.00,VWS V13.01,2013-12-24 08:44:00,
2013-12-24 03:50:00,7.2,7.2,29.94,North,1,7.4,13.4,100,0.00,,,0.00,VWS V13.01,2013-12-24 08:50:00,
2013-12-24 03:56:00,7.0,7.0,29.94,NW,318,4.7,12.5,100,0.00,,,0.00,VWS V13.01,2013-12-24 08:56:00,
2013-12-24 04:02:00,7.0,7.0,29.94,NW,309,8.7,11.6,100,0.00,,,0.00,VWS V13.01,2013-12-24 09:02:00,
2013-12-24 04:08:00,6.8,6.8,29.94,North,353,9.4,14.3,100,0.00,,,0.00,VWS V13.01,2013-12-24 09:08:00,
2013-12-24 04:14:00,6.4,6.4,29.94,WNW,294,7.4,12.5,100,0.00,,,0.00,VWS V13.01,2013-12-24 09:14:00,
2013-12-24 04:20:00,6.4,6.4,29.94,North,357,8.1,15.2,100,0.00,,,0.00,VWS V13.01,2013-12-24 09:20:00,
2013-12-24 04:26:00,6.1,6.1,29.94,North,353,8.1,11.6,100,0.00,,,0.00,VWS V13.01,2013-12-24 09:26:00,
2013-12-24 04:32:00,5.9,5.9,29.94,NNW,332,9.4,16.1,100,0.00,,,0.00,VWS V13.01,2013-12-24 09:32:00,
2013-12-24 04:38:00,5.5,5.5,29.94,NNW,341,5.4,10.7,100,0.00,,,0.00,VWS V13.01,2013-12-24 09:38:00,
2013-12-24 04:44:00,5.5,5.5,29.94,NNW,338,8.1,13.4,100,0.00,,,0.00,VWS V13.01,2013-12-24 09:44:00,
2013-12-24 04:50:00,5.4,5.4,29.94,NW,320,5.4,11.6,100,0.00,,,0.00,VWS V13.01,2013-12-24 09:50:00,
2013-12-24 04:56:00,5.0,5.0,29.94,NNW,346,5.4,10.7,100,0.00,,,0.00,VWS V13.01,2013-12-24 09:56:00,
2013-12-24 05:02:00,5.2,5.2,29.94,NNW,346,5.4,11.6,100,0.00,,,0.00,VWS V13.01,2013-12-24 10:02:00,
2013-12-24 05:08:00,5.0,5.0,29.94,NNW,343,4.7,10.7,100,0.00,,,0.00,VWS V13.01,2013-12-24 10:08:00,
2013-12-24 05:14:00,4.6,4.6,29.94,NNW,332,4.7,10.7,100,0.00,,,0.00,VWS V13.01,2013-12-24 10:14:00,
2013-12-24 05:20:00,4.5,4.5,29.94,NNW,341,6.0,8.1,100,0.00,,,0.00,VWS V13.01,2013-12-24 10:20:00,
2013-12-24 05:26:00,4.3,4.3,29.94,NNW,337,4.7,8.1,100,0.00,,,0.00,VWS V13.01,2013-12-24 10:26:00,
2013-12-24 05:32:00,4.1,4.1,29.94,NW,314,5.4,10.7,100,0.00,,,0.00,VWS V13.01,2013-12-24 10:32:00,
2013-12-24 05:38:00,4.3,4.3,29.94,North,357,6.0,14.3,100,0.00,,,0.00,VWS V13.01,2013-12-24 10:38:00,
2013-12-24 05:44:00,4.3,4.3,29.94,North,357,6.0,12.5,100,0.00,,,0.00,VWS V13.01,2013-12-24 10:44:00,
2013-12-24 05:50:00,4.3,4.3,29.94,North,0,12.1,16.1,100,0.00,,,0.00,VWS V13.01,2013-12-24 10:50:00,
2013-12-24 05:56:00,4.1,4.1,29.94,North,349,5.4,11.6,100,0.00,,,0.00,VWS V13.01,2013-12-24 10:56:00,
2013-12-24 06:02:00,4.1,4.1,29.94,North,357,6.0,12.5,100,0.00,,,0.00,VWS V13.01,2013-12-24 11:02:00,
2013-12-24 06:08:00,3.4,3.4,29.94,NNW,345,4.7,11.6,100,0.00,,,0.00,VWS V13.01,2013-12-24 11:08:00,
2013-12-24 06:16:00,3.2,3.2,29.94,North,353,5.4,10.7,100,0.00,,,0.00,VWS V13.01,2013-12-24 11:16:00,
2013-12-24 06:22:00,2.8,2.8,29.94,North,357,5.4,10.7,100,0.00,,,0.00,VWS V13.01,2013-12-24 11:22:00,
2013-12-24 06:28:00,2.5,2.5,29.94,NNW,337,5.4,7.2,100,0.00,,,0.00,VWS V13.01,2013-12-24 11:28:00,
2013-12-24 06:34:00,1.9,1.9,29.94,NNW,338,3.4,8.9,100,0.00,,,0.00,VWS V13.01,2013-12-24 11:34:00,
2013-12-24 06:40:00,0.7,0.7,29.94,NW,310,4.0,6.3,100,0.00,,,0.00,VWS V13.01,2013-12-24 11:40:00,
2013-12-24 06:46:00,0.3,0.3,29.94,NW,310,0.0,4.5,100,0.00,,,0.00,VWS V13.01,2013-12-24 11:46:00,
2013-12-24 06:52:00,0.0,0.0,29.94,NW,310,0.0,0.0,100,0.00,,,0.00,VWS V13.01,2013-12-24 11:52:00,
2013-12-24 06:58:00,-0.9,-0.9,29.94,NW,310,0.0,0.0,100,0.00,,,0.00,VWS V13.01,2013-12-24 11:58:00,
2013-12-24 07:06:00,-1.7,-1.7,29.94,NW,310,0.0,0.0,100,0.00,,,0.00,VWS V13.01,2013-12-24 12:06:00,
2013-12-24 07:12:00,-2.2,-2.2,29.94,NW,310,0.0,0.0,100,0.00,,,0.00,VWS V13.01,2013-12-24 12:12:00,
2013-12-24 07:18:00,-1.5,-1.5,29.94,NW,310,0.0,0.0,100,0.00,,,0.00,VWS V13.01,2013-12-24 12:18:00,
2013-12-24 07:24:00,-1.3,-1.3,29.94,WNW,301,0.0,0.0,100,0.00,,,0.00,VWS V13.01,2013-12-24 12:24:00,
2013-12-24 07:30:00,-1.3,-1.3,29.94,WNW,295,0.0,6.3,100,0.00,,,0.00,VWS V13.01,2013-12-24 12:30:00,
2013-12-24 07:36:00,-1.3,-1.3,29.94,NW,305,4.0,6.3,100,0.00,,,0.00,VWS V13.01,2013-12-24 12:36:00,
2013-12-24 07:41:00,-1.3,-1.3,29.94,NW,319,0.0,0.0,100,0.00,,,0.00,VWS V13.01,2013-12-24 12:41:00,
2013-12-24 07:48:00,-1.1,-1.1,29.94,NW,307,0.0,6.3,100,0.00,,,0.00,VWS V13.01,2013-12-24 12:48:00,
2013-12-24 07:54:00,0.0,0.0,29.94,NNW,348,0.0,5.4,100,0.00,,,0.00,VWS V13.01,2013-12-24 12:54:00,
2013-12-24 08:00:00,0.5,0.5,29.94,NNW,341,6.0,8.1,100,0.00,,,0.00,VWS V13.01,2013-12-24 13:00:00,
2013-12-24 08:06:00,0.9,0.9,29.94,NNW,338,3.4,7.2,100,0.00,,,0.00,VWS V13.01,2013-12-24 13:06:00,
2013-12-24 08:12:00,1.9,1.9,29.94,NNW,337,3.4,6.3,100,0.00,,,0.00,VWS V13.01,2013-12-24 13:12:00,
2013-12-24 08:18:00,3.7,3.7,29.94,NNW,337,0.0,4.5,100,0.00,,,0.00,VWS V13.01,2013-12-24 13:18:00,
2013-12-24 08:24:00,4.3,4.3,29.94,NNW,338,0.0,0.0,100,0.00,,,0.00,VWS V13.01,2013-12-24 13:24:00,
2013-12-24 08:30:00,5.0,5.0,29.94,NNW,342,0.0,4.5,100,0.00,,,0.00,VWS V13.01,2013-12-24 13:30:00,
2013-12-24 08:36:00,4.6,4.6,29.94,NNW,342,4.0,8.1,100,0.00,,,0.00,VWS V13.01,2013-12-24 13:36:00,
2013-12-24 08:42:00,5.4,5.4,29.94,NW,317,5.4,7.2,100,0.00,,,0.00,VWS V13.01,2013-12-24 13:42:00,
2013-12-24 08:48:00,4.8,4.8,29.94,NNW,342,6.0,8.1,100,0.00,,,0.00,VWS V13.01,2013-12-24 13:48:00,
2013-12-24 08:54:00,5.0,5.0,29.94,NNW,342,4.7,11.6,100,0.00,,,0.00,VWS V13.01,2013-12-24 13:54:00,
2013-12-24 09:00:00,4.6,4.6,29.94,North,1,8.1,12.5,100,0.00,,,0.00,VWS V13.01,2013-12-24 14:00:00,
2013-12-24 09:06:00,4.6,4.6,29.97,North,1,9.4,12.5,100,0.00,,,0.00,VWS V13.01,2013-12-24 14:06:00,
2013-12-24 09:12:00,5.0,5.0,29.97,North,1,7.4,10.7,100,0.00,,,0.00,VWS V13.01,2013-12-24 14:12:00,
2013-12-24 09:18:00,5.7,5.7,29.97,NNW,340,7.4,12.5,100,0.00,,,0.00,VWS V13.01,2013-12-24 14:18:00,
2013-12-24 09:24:00,6.3,6.3,29.97,NW,320,0.0,11.6,100,0.00,,,0.00,VWS V13.01,2013-12-24 14:24:00,
2013-12-24 09:30:00,6.3,6.3,29.97,North,353,6.0,8.1,100,0.00,,,0.00,VWS V13.01,2013-12-24 14:30:00,
2013-12-24 09:36:00,8.2,8.2,29.97,North,357,5.4,7.2,100,0.00,,,0.00,VWS V13.01,2013-12-24 14:36:00,
2013-12-24 09:42:00,7.0,7.0,29.97,NNW,340,8.1,10.7,100,0.00,,,0.00,VWS V13.01,2013-12-24 14:42:00,
2013-12-24 09:47:00,7.9,7.9,29.97,NNW,330,6.7,11.6,100,0.00,,,0.00,VWS V13.01,2013-12-24 14:47:00,
2013-12-24 09:54:00,7.5,7.5,29.97,NNW,339,9.4,12.5,100,0.00,,,0.00,VWS V13.01,2013-12-24 14:54:00,
2013-12-24 10:00:00,8.6,8.6,29.97,North,3,8.1,10.7,100,0.00,,,0.00,VWS V13.01,2013-12-24 15:00:00,
2013-12-24 10:06:00,9.3,9.3,29.97,North,1,4.7,10.7,100,0.00,,,0.00,VWS V13.01,2013-12-24 15:06:00,
2013-12-24 10:11:00,8.8,8.8,29.97,NNW,330,6.0,11.6,100,0.00,,,0.00,VWS V13.01,2013-12-24 15:11:00,
2013-12-24 10:18:00,9.1,9.1,29.97,NNW,343,4.7,11.6,100,0.00,,,0.00,VWS V13.01,2013-12-24 15:18:00,
2013-12-24 10:23:00,10.4,10.4,29.97,North,1,4.0,8.9,100,0.00,,,0.00,VWS V13.01,2013-12-24 15:23:00,
2013-12-24 10:29:00,10.6,10.6,29.97,NNE,21,4.0,9.8,100,0.00,,,0.00,VWS V13.01,2013-12-24 15:29:00,
2013-12-24 10:35:00,12.2,12.2,29.94,North,4,4.7,9.8,100,0.00,,,0.00,VWS V13.01,2013-12-24 15:35:00,
2013-12-24 10:42:00,10.0,10.0,29.94,North,6,6.0,12.5,100,0.00,,,0.00,VWS V13.01,2013-12-24 15:42:00,
2013-12-24 10:48:00,10.8,10.8,29.94,NNW,343,4.7,9.8,100,0.00,,,0.00,VWS V13.01,2013-12-24 15:48:00,
2013-12-24 10:53:00,12.2,12.2,29.94,NNW,330,6.0,9.8,100,0.00,,,0.00,VWS V13.01,2013-12-24 15:53:00,
2013-12-24 10:59:00,13.8,13.8,29.94,NW,317,4.0,9.8,100,0.00,,,0.00,VWS V13.01,2013-12-24 15:59:00,
2013-12-24 11:06:00,16.2,14.2,29.94,NW,323,0.0,8.1,92,0.00,,,0.00,VWS V13.01,2013-12-24 16:06:00,
2013-12-24 11:12:00,14.9,14.0,29.94,NNW,329,4.0,7.2,96,0.00,,,0.00,VWS V13.01,2013-12-24 16:12:00,
2013-12-24 11:18:00,18.9,16.9,29.94,NNW,330,0.0,6.3,92,0.00,,,0.00,VWS V13.01,2013-12-24 16:18:00,
2013-12-24 11:24:00,15.6,14.7,29.94,North,353,4.7,8.1,96,0.00,,,0.00,VWS V13.01,2013-12-24 16:24:00,
2013-12-24 11:29:00,15.6,14.7,29.94,NNE,28,5.4,7.2,96,0.00,,,0.00,VWS V13.01,2013-12-24 16:29:00,
2013-12-24 11:35:00,16.2,14.2,29.91,North,357,5.4,8.1,92,0.00,,,0.00,VWS V13.01,2013-12-24 16:35:00,
2013-12-24 11:42:00,19.8,16.8,29.91,North,9,3.4,4.5,88,0.00,,,0.00,VWS V13.01,2013-12-24 16:42:00,
2013-12-24 11:47:00,21.4,18.4,29.91,NE,35,0.0,0.0,88,0.00,,,0.00,VWS V13.01,2013-12-24 16:47:00,
2013-12-24 11:53:00,24.4,21.4,29.91,NE,39,0.0,0.0,88,0.00,,,0.00,VWS V13.01,2013-12-24 16:53:00,
2013-12-24 12:00:00,27.3,23.1,29.91,NE,55,0.0,0.0,84,0.00,,,0.00,VWS V13.01,2013-12-24 17:00:00,
2013-12-24 12:05:00,28.4,24.2,29.91,NE,55,0.0,0.0,84,0.00,,,0.00,VWS V13.01,2013-12-24 17:05:00,
2013-12-24 12:12:00,23.5,20.5,29.91,NE,55,0.0,0.0,88,0.00,,,0.00,VWS V13.01,2013-12-24 17:12:00,
2013-12-24 12:18:00,24.6,21.6,29.91,North,357,0.0,6.3,88,0.00,,,0.00,VWS V13.01,2013-12-24 17:18:00,
2013-12-24 12:24:00,19.2,17.3,29.91,North,10,5.4,8.1,92,0.00,,,0.00,VWS V13.01,2013-12-24 17:24:00,
2013-12-24 12:30:00,21.2,18.2,29.91,NE,54,3.4,6.3,88,0.00,,,0.00,VWS V13.01,2013-12-24 17:30:00,
2013-12-24 12:36:00,23.5,20.5,29.91,NNW,334,0.0,0.0,88,0.00,,,0.00,VWS V13.01,2013-12-24 17:36:00,
2013-12-24 12:42:00,26.8,22.6,29.91,West,276,3.4,7.2,84,0.00,,,0.00,VWS V13.01,2013-12-24 17:42:00,
2013-12-24 12:48:00,25.9,21.7,29.91,North,349,4.7,8.1,84,0.00,,,0.00,VWS V13.01,2013-12-24 17:48:00,
2013-12-24 12:54:00,21.9,18.9,29.91,North,353,4.0,6.3,88,0.00,,,0.00,VWS V13.01,2013-12-24 17:54:00,
2013-12-24 13:00:00,22.8,19.8,29.91,North,3,4.7,9.8,88,0.00,,,0.00,VWS V13.01,2013-12-24 18:00:00,
2013-12-24 13:06:00,24.8,21.8,29.91,WSW,257,4.7,6.3,88,0.00,,,0.00,VWS V13.01,2013-12-24 18:06:00,
2013-12-24 13:12:00,21.9,18.9,29.91,NW,319,5.4,8.1,88,0.00,,,0.00,VWS V13.01,2013-12-24 18:12:00,
2013-12-24 13:18:00,18.5,16.6,29.91,NNW,331,4.7,12.5,92,0.00,,,0.00,VWS V13.01,2013-12-24 18:18:00,
2013-12-24 13:24:00,18.3,16.4,29.91,NNW,330,8.1,10.7,92,0.00,,,0.00,VWS V13.01,2013-12-24 18:24:00,
2013-12-24 13:30:00,21.4,18.4,29.91,West,281,4.0,10.7,88,0.00,,,0.00,VWS V13.01,2013-12-24 18:30:00,
2013-12-24 13:36:00,22.1,19.1,29.91,NW,305,6.0,11.6,88,0.00,,,0.00,VWS V13.01,2013-12-24 18:36:00,
2013-12-24 13:42:00,15.6,14.7,29.91,WNW,283,8.1,11.6,96,0.00,,,0.00,VWS V13.01,2013-12-24 18:42:00,
2013-12-24 13:48:00,14.9,14.0,29.91,WNW,290,8.1,10.7,96,0.00,,,0.00,VWS V13.01,2013-12-24 18:48:00,
2013-12-24 13:54:00,15.3,14.3,29.91,WNW,297,7.4,9.8,96,0.00,,,0.00,VWS V13.01,2013-12-24 18:54:00,
2013-12-24 14:00:00,14.9,14.0,29.91,WNW,300,4.0,9.8,96,0.00,,,0.00,VWS V13.01,2013-12-24 19:00:00,
2013-12-24 14:06:00,19.2,17.3,29.91,NNE,23,4.0,10.7,92,0.00,,,0.00,VWS V13.01,2013-12-24 19:06:00,
2013-12-24 14:12:00,19.4,17.5,29.91,NW,305,6.0,10.7,92,0.00,,,0.00,VWS V13.01,2013-12-24 19:12:00,
2013-12-24 14:18:00,14.2,13.2,29.91,WNW,293,5.4,12.5,96,0.00,,,0.00,VWS V13.01,2013-12-24 19:18:00,
2013-12-24 14:24:00,14.9,14.0,29.91,NW,321,4.0,6.3,96,0.00,,,0.00,VWS V13.01,2013-12-24 19:24:00,
2013-12-24 14:30:00,15.3,14.3,29.91,WNW,293,4.0,5.4,96,0.00,,,0.00,VWS V13.01,2013-12-24 19:30:00,
2013-12-24 14:36:00,19.0,17.1,29.91,North,3,7.4,9.8,92,0.00,,,0.00,VWS V13.01,2013-12-24 19:36:00,
2013-12-24 14:41:00,20.8,17.9,29.91,NW,314,0.0,6.3,88,0.00,,,0.00,VWS V13.01,2013-12-24 19:41:00,
2013-12-24 14:48:00,19.6,16.6,29.91,NW,311,4.7,8.1,88,0.00,,,0.00,VWS V13.01,2013-12-24 19:48:00,
2013-12-24 14:54:00,13.6,12.7,29.91,WNW,288,6.0,10.7,96,0.00,,,0.00,VWS V13.01,2013-12-24 19:54:00,
2013-12-24 15:00:00,11.3,10.4,29.91,WNW,298,7.4,11.6,96,0.00,,,0.00,VWS V13.01,2013-12-24 20:00:00,
2013-12-24 15:06:00,9.9,8.9,29.91,WNW,286,4.7,6.3,96,0.00,,,0.00,VWS V13.01,2013-12-24 20:06:00,
2013-12-24 15:12:00,9.0,8.1,29.91,WNW,284,5.4,9.8,96,0.00,,,0.00,VWS V13.01,2013-12-24 20:12:00,
2013-12-24 15:18:00,8.6,7.7,29.91,NW,305,3.4,7.2,96,0.00,,,0.00,VWS V13.01,2013-12-24 20:18:00,
2013-12-24 15:24:00,8.1,7.2,29.91,WNW,291,4.7,10.7,96,0.00,,,0.00,VWS V13.01,2013-12-24 20:24:00,
2013-12-24 15:30:00,7.5,6.6,29.91,West,266,6.0,8.1,96,0.00,,,0.00,VWS V13.01,2013-12-24 20:30:00,
2013-12-24 15:35:00,7.7,6.8,29.91,NW,323,4.7,10.7,96,0.00,,,0.00,VWS V13.01,2013-12-24 20:35:00,
2013-12-24 15:41:00,7.7,6.8,29.91,NW,306,4.7,11.6,96,0.00,,,0.00,VWS V13.01,2013-12-24 20:41:00,
2013-12-24 15:47:00,7.5,6.6,29.91,WNW,285,4.7,8.1,96,0.00,,,0.00,VWS V13.01,2013-12-24 20:47:00,
2013-12-24 15:53:00,7.2,6.3,29.91,West,279,4.0,7.2,96,0.00,,,0.00,VWS V13.01,2013-12-24 20:53:00,
2013-12-24 16:00:00,6.8,5.9,29.91,WNW,293,3.4,7.2,96,0.00,,,0.00,VWS V13.01,2013-12-24 21:00:00,
2013-12-24 16:05:00,6.8,5.9,29.94,WNW,300,4.7,8.1,96,0.00,,,0.00,VWS V13.01,2013-12-24 21:05:00,
2013-12-24 16:12:00,6.8,5.9,29.94,WNW,287,4.0,8.1,96,0.00,,,0.00,VWS V13.01,2013-12-24 21:12:00,
2013-12-24 16:18:00,6.8,5.9,29.94,WNW,299,6.0,10.7,96,0.00,,,0.00,VWS V13.01,2013-12-24 21:18:00,
2013-12-24 16:23:00,6.6,5.7,29.94,West,277,4.7,12.5,96,0.00,,,0.00,VWS V13.01,2013-12-24 21:23:00,
2013-12-24 16:30:00,6.6,5.7,29.94,West,269,6.0,8.1,96,0.00,,,0.00,VWS V13.01,2013-12-24 21:30:00,
2013-12-24 16:36:00,6.4,5.5,29.94,West,268,6.7,8.9,96,0.00,,,0.00,VWS V13.01,2013-12-24 21:36:00,
2013-12-24 16:42:00,6.8,5.9,29.94,NNW,327,5.4,9.8,96,0.00,,,0.00,VWS V13.01,2013-12-24 21:42:00,
2013-12-24 16:47:00,7.0,6.1,29.94,North,357,8.1,12.5,96,0.00,,,0.00,VWS V13.01,2013-12-24 21:47:00,
2013-12-24 16:53:00,7.0,6.1,29.94,North,1,4.0,12.5,96,0.00,,,0.00,VWS V13.01,2013-12-24 21:53:00,
2013-12-24 17:00:00,7.2,6.3,29.94,North,357,12.1,16.1,96,0.00,,,0.00,VWS V13.01,2013-12-24 22:00:00,
2013-12-24 17:05:00,7.2,6.3,29.94,NNW,331,4.0,15.2,96,0.00,,,0.00,VWS V13.01,2013-12-24 22:05:00,
2013-12-24 17:12:00,7.2,6.3,29.94,NNW,330,4.7,12.5,96,0.00,,,0.00,VWS V13.01,2013-12-24 22:12:00,
2013-12-24 17:18:00,7.2,6.3,29.94,NNW,327,4.7,9.8,96,0.00,,,0.00,VWS V13.01,2013-12-24 22:18:00,
2013-12-24 17:24:00,7.2,6.3,29.94,NNW,336,5.4,11.6,96,0.00,,,0.00,VWS V13.01,2013-12-24 22:24:00,
2013-12-24 17:29:00,7.2,6.3,29.94,North,5,9.4,13.4,96,0.00,,,0.00,VWS V13.01,2013-12-24 22:29:00,
2013-12-24 17:36:00,7.2,6.3,29.94,NNW,343,11.4,16.6,96,0.00,,,0.00,VWS V13.01,2013-12-24 22:36:00,
2013-12-24 17:42:00,7.0,6.1,29.94,North,353,5.4,16.6,96,0.00,,,0.00,VWS V13.01,2013-12-24 22:42:00,
2013-12-24 17:47:00,6.8,5.9,29.94,North,1,8.1,17.4,96,0.00,,,0.00,VWS V13.01,2013-12-24 22:47:00,
2013-12-24 17:54:00,6.8,5.9,29.94,NNE,22,6.0,12.5,96,0.00,,,0.00,VWS V13.01,2013-12-24 22:54:00,
2013-12-24 18:00:00,6.8,5.9,29.94,NNE,20,7.4,9.8,96,0.00,,,0.00,VWS V13.01,2013-12-24 23:00:00,
2013-12-24 18:06:00,7.2,6.3,29.94,NNE,15,8.1,16.1,96,0.00,,,0.00,VWS V13.01,2013-12-24 23:06:00,
2013-12-24 18:11:00,7.2,6.3,29.94,NNE,20,15.1,20.1,96,0.00,,,0.00,VWS V13.01,2013-12-24 23:11:00,
2013-12-24 18:18:00,7.2,6.3,29.94,North,5,11.4,15.2,96,0.00,,,0.00,VWS V13.01,2013-12-24 23:18:00,
2013-12-24 18:24:00,7.2,6.3,29.97,NE,34,7.4,14.3,96,0.00,,,0.00,VWS V13.01,2013-12-24 23:24:00,
2013-12-24 18:30:00,7.2,6.3,29.97,NNE,17,4.7,12.5,96,0.00,,,0.00,VWS V13.01,2013-12-24 23:30:00,
2013-12-24 18:36:00,7.0,6.1,29.97,North,2,6.0,11.6,96,0.00,,,0.00,VWS V13.01,2013-12-24 23:36:00,
2013-12-24 18:42:00,6.8,5.9,29.97,NNW,340,12.1,16.1,96,0.00,,,0.00,VWS V13.01,2013-12-24 23:42:00,
2013-12-24 18:48:00,6.4,5.5,29.97,NW,319,5.4,8.1,96,0.00,,,0.00,VWS V13.01,2013-12-24 23:48:00,
2013-12-24 18:53:00,6.1,5.2,29.97,NW,306,8.1,10.7,96,0.00,,,0.00,VWS V13.01,2013-12-24 23:53:00,
2013-12-24 19:00:00,6.1,5.2,29.97,North,357,7.4,12.5,96,0.00,,,0.00,VWS V13.01,2013-12-25 00:00:00,
2013-12-24 19:06:00,5.7,4.8,29.97,North,353,0.0,8.1,96,0.00,,,0.00,VWS V13.01,2013-12-25 00:06:00,
2013-12-24 19:12:00,5.7,4.8,29.97,NNE,15,3.4,10.7,96,0.00,,,0.00,VWS V13.01,2013-12-25 00:12:00,
2013-12-24 19:18:00,5.5,4.7,29.97,North,0,6.0,8.1,96,0.00,,,0.00,VWS V13.01,2013-12-25 00:18:00,
2013-12-24 19:24:00,5.5,4.7,29.97,NNW,338,4.0,7.2,96,0.00,,,0.00,VWS V13.01,2013-12-25 00:24:00,
2013-12-24 19:30:00,5.5,4.7,29.97,NNW,341,4.0,10.7,96,0.00,,,0.00,VWS V13.01,2013-12-25 00:30:00,
2013-12-24 19:36:00,5.4,4.5,30.00,North,353,4.0,6.3,96,0.00,,,0.00,VWS V13.01,2013-12-25 00:36:00,
2013-12-24 19:42:00,5.4,4.5,30.00,North,353,5.4,8.1,96,0.00,,,0.00,VWS V13.01,2013-12-25 00:42:00,
2013-12-24 19:48:00,5.4,4.5,30.00,North,357,4.0,8.1,96,0.00,,,0.00,VWS V13.01,2013-12-25 00:48:00,
2013-12-24 19:54:00,5.5,4.7,30.00,NW,320,5.4,11.6,96,0.00,,,0.00,VWS V13.01,2013-12-25 00:54:00,
2013-12-24 20:00:00,5.5,4.7,30.00,NNW,341,7.4,9.8,96,0.00,,,0.00,VWS V13.01,2013-12-25 01:00:00,
2013-12-24 20:06:00,5.5,4.7,30.00,NNW,337,4.7,11.6,96,0.00,,,0.00,VWS V13.01,2013-12-25 01:06:00,
2013-12-24 20:12:00,5.4,4.5,30.00,North,5,3.4,8.1,96,0.00,,,0.00,VWS V13.01,2013-12-25 01:12:00,
2013-12-24 20:18:00,5.4,4.5,30.00,North,353,5.4,9.8,96,0.00,,,0.00,VWS V13.01,2013-12-25 01:18:00,
2013-12-24 20:24:00,5.4,4.5,30.00,North,357,6.0,11.6,96,0.00,,,0.00,VWS V13.01,2013-12-25 01:24:00,
2013-12-24 20:30:00,5.4,4.5,30.00,North,357,6.0,11.6,96,0.00,,,0.00,VWS V13.01,2013-12-25 01:30:00,
2013-12-24 20:36:00,5.2,4.3,30.00,North,357,7.4,11.6,96,0.00,,,0.00,VWS V13.01,2013-12-25 01:36:00,
2013-12-24 20:42:00,5.0,4.1,30.00,NNE,23,8.1,12.5,96,0.00,,,0.00,VWS V13.01,2013-12-25 01:42:00,
2013-12-24 20:48:00,4.8,3.9,30.00,North,353,4.7,12.5,96,0.00,,,0.00,VWS V13.01,2013-12-25 01:48:00,
2013-12-24 20:54:00,4.5,3.6,30.00,North,3,6.7,10.7,96,0.00,,,0.00,VWS V13.01,2013-12-25 01:54:00,
2013-12-24 21:00:00,4.1,3.2,30.00,North,357,5.4,12.5,96,0.00,,,0.00,VWS V13.01,2013-12-25 02:00:00,
2013-12-24 21:06:00,3.9,3.0,30.00,North,4,6.7,9.8,96,0.00,,,0.00,VWS V13.01,2013-12-25 02:06:00,
2013-12-24 21:12:00,3.7,2.8,30.00,North,357,5.4,11.6,96,0.00,,,0.00,VWS V13.01,2013-12-25 02:12:00,
2013-12-24 21:18:00,3.2,2.3,30.00,North,353,4.7,10.7,96,0.00,,,0.00,VWS V13.01,2013-12-25 02:18:00,
2013-12-24 21:24:00,3.2,2.3,30.03,North,357,4.7,10.7,96,0.00,,,0.00,VWS V13.01,2013-12-25 02:24:00,
2013-12-24 21:30:00,3.0,2.1,30.03,North,0,8.1,10.7,96,0.00,,,0.00,VWS V13.01,2013-12-25 02:30:00,
2013-12-24 21:36:00,3.2,2.3,30.03,NNE,14,4.0,12.5,96,0.00,,,0.00,VWS V13.01,2013-12-25 02:36:00,
2013-12-24 21:42:00,3.2,2.3,30.03,North,0,8.1,12.5,96,0.00,,,0.00,VWS V13.01,2013-12-25 02:42:00,
2013-12-24 21:48:00,3.0,2.1,30.03,North,353,4.7,10.7,96,0.00,,,0.00,VWS V13.01,2013-12-25 02:48:00,
2013-12-24 21:54:00,2.8,2.0,30.03,North,357,4.7,7.2,96,0.00,,,0.00,VWS V13.01,2013-12-25 02:54:00,
2013-12-24 22:00:00,2.8,2.0,30.03,NNW,329,6.0,10.7,96,0.00,,,0.00,VWS V13.01,2013-12-25 03:00:00,
2013-12-24 22:06:00,2.8,2.0,30.03,North,353,7.4,10.7,96,0.00,,,0.00,VWS V13.01,2013-12-25 03:06:00,
2013-12-24 22:12:00,2.5,1.6,30.03,NNW,343,4.0,8.1,96,0.00,,,0.00,VWS V13.01,2013-12-25 03:12:00,
2013-12-24 22:18:00,2.7,1.8,30.03,NNW,342,8.1,11.6,96,0.00,,,0.00,VWS V13.01,2013-12-25 03:18:00,
2013-12-24 22:24:00,2.3,1.4,30.03,North,0,0.0,7.2,96,0.00,,,0.00,VWS V13.01,2013-12-25 03:24:00,
2013-12-24 22:30:00,2.3,1.4,30.03,NW,322,4.0,7.2,96,0.00,,,0.00,VWS V13.01,2013-12-25 03:30:00,
2013-12-24 22:36:00,2.5,1.6,30.03,North,4,7.4,11.6,96,0.00,,,0.00,VWS V13.01,2013-12-25 03:36:00,
2013-12-24 22:42:00,2.3,1.4,30.03,NNW,336,4.0,8.1,96,0.00,,,0.00,VWS V13.01,2013-12-25 03:42:00,
2013-12-24 22:48:00,2.3,1.4,30.03,North,357,6.0,8.1,96,0.00,,,0.00,VWS V13.01,2013-12-25 03:48:00,
2013-12-24 22:54:00,1.9,1.1,30.03,NNW,338,9.4,12.5,96,0.00,,,0.00,VWS V13.01,2013-12-25 03:54:00,
2013-12-24 23:00:00,1.8,0.9,30.03,NNW,345,6.0,9.8,96,0.00,,,0.00,VWS V13.01,2013-12-25 04:00:00,
2013-12-24 23:06:00,1.4,0.5,30.06,North,10,5.4,8.1,96,0.00,,,0.00,VWS V13.01,2013-12-25 04:06:00,
2013-12-24 23:12:00,1.6,0.7,30.06,NNW,344,7.4,16.1,96,0.00,,,0.00,VWS V13.01,2013-12-25 04:12:00,
2013-12-24 23:18:00,1.4,0.5,30.06,NNW,341,5.4,11.6,96,0.00,,,0.00,VWS V13.01,2013-12-25 04:18:00,
2013-12-24 23:24:00,1.6,0.7,30.06,NNW,344,5.4,11.6,96,0.00,,,0.00,VWS V13.01,2013-12-25 04:24:00,
2013-12-24 23:30:00,1.6,0.7,30.06,North,357,5.4,10.7,96,0.00,,,0.00,VWS V13.01,2013-12-25 04:30:00,
2013-12-24 23:36:00,1.6,0.7,30.06,NNW,339,8.1,10.7,96,0.00,,,0.00,VWS V13.01,2013-12-25 04:36:00,
2013-12-24 23:42:00,1.4,0.5,30.06,NNW,341,9.4,12.5,96,0.00,,,0.00,VWS V13.01,2013-12-25 04:42:00,
2013-12-24 23:48:00,1.2,0.3,30.06,WNW,296,7.4,10.7,96,0.00,,,0.00,VWS V13.01,2013-12-25 04:48:00,
2013-12-24 23:54:00,0.7,-0.2,30.06,North,1,5.4,8.1,96,0.00,,,0.00,VWS V13.01,2013-12-25 04:54:00,